Frisia Inn — A8NR9 — position and weather

sailwx.info

Track history (hours):
 
Tides and Currents Weather Stations Pressure Air Temp Water Temp Dewpoint Dewpoint Depression Visibility Wind Speed Wind Dir Waves Ship Positions

Frisia Inn

Last reported at 2018-Apr-21 14:10 UTC. Time now 2018-Apr-26 19:17 UTC.
Position N 25°24' W 079°56'.

Length 148 m; draft 7.6 m.

Type: Ship. MMSI: 636091437.

Date/timePositionNaut miles runAvg speedWind from/ knotsBaromVisibWave heightAir tempDewpointWater temp
2018-Apr-21 14:10N 25°24' W 079°56'213.6
2018-Apr-21 14:01N 25°26' W 079°56'713.6
2018-Apr-21 13:29N 25°33' W 079°55'613.2
2018-Apr-21 13:00N 25°39' W 079°57'715.1
2018-Apr-21 12:31N 25°45' W 080°02'611.4
2018-Apr-21 12:00N 25°46' W 080°08'2 3.3
2018-Apr-21 11:29N 25°46' W 080°10'0 0.0
2018-Apr-21 10:50N 25°46' W 080°10'0 0.0
2018-Apr-21 10:29N 25°46' W 080°10'0 0.0
2018-Apr-21 09:59N 25°46' W 080°10'0 0.0
2018-Apr-21 09:29N 25°46' W 080°10'0 0.0
2018-Apr-21 08:58N 25°46' W 080°10'0 0.0
2018-Apr-21 08:29N 25°46' W 080°10'0 0.0
2018-Apr-21 07:59N 25°46' W 080°10'0 0.0
2018-Apr-21 07:29N 25°46' W 080°10'0 0.0
2018-Apr-21 06:56N 25°46' W 080°10'0 0.0
2018-Apr-21 06:29N 25°46' W 080°10'0 0.0
2018-Apr-21 05:58N 25°46' W 080°10'0 0.0
2018-Apr-21 05:28N 25°46' W 080°10'0 0.0
2018-Apr-21 04:58N 25°46' W 080°10'0 0.0
2018-Apr-21 04:28N 25°46' W 080°10'0 0.0
2018-Apr-21 03:58N 25°46' W 080°10'0 0.0
2018-Apr-21 03:30N 25°46' W 080°10'0 0.0
2018-Apr-21 03:00N 25°46' W 080°10'0 0.0
2018-Apr-21 02:30N 25°46' W 080°10'1 1.8
2018-Apr-21 02:00N 25°46' W 080°09'510.7
2018-Apr-21 01:31N 25°46' W 080°03'4 8.0
2018-Apr-21 01:01N 25°48' W 079°59'4 8.7
2018-Apr-21 00:30N 25°51' W 079°56'510.9
2018-Apr-21 00:00N 25°54' W 079°51'611.0
2018-Apr-20 23:30N 25°58' W 079°46'612.9
2018-Apr-20 23:00N 26°01' W 079°40'713.8
2018-Apr-20 22:30N 26°04' W 079°33'713.8
2018-Apr-20 21:59N 26°08' W 079°27'44 1.7
2018-Apr-19 20:06N 26°32' W 078°45'0 0.0
2018-Apr-19 11:34N 26°32' W 078°45'0 0.0
2018-Apr-19 11:29N 26°32' W 078°45'0 0.0
2018-Apr-19 11:00N 26°32' W 078°45'0 0.0
2018-Apr-19 10:30N 26°32' W 078°45'0 0.0
2018-Apr-19 09:58N 26°32' W 078°45'0 0.0
2018-Apr-19 09:30N 26°32' W 078°45'0 0.0
2018-Apr-19 08:55N 26°32' W 078°45'0 0.0
2018-Apr-19 08:27N 26°32' W 078°45'0 0.0
2018-Apr-19 07:50N 26°32' W 078°45'0 0.0
2018-Apr-19 07:22N 26°32' W 078°45'0 0.0
2018-Apr-19 06:59N 26°32' W 078°45'0 0.0
2018-Apr-19 06:26N 26°32' W 078°45'0 0.0
2018-Apr-19 06:00N 26°32' W 078°45'0 0.0
2018-Apr-19 05:27N 26°32' W 078°45'0 0.0
2018-Apr-19 05:00N 26°32' W 078°45'0 0.0
2018-Apr-19 04:30N 26°32' W 078°45'0 0.0
2018-Apr-19 04:00N 26°32' W 078°45'0 0.0
2018-Apr-18 18:19N 26°32' W 078°45'0 0.0
2018-Apr-18 17:26N 26°32' W 078°45'0 0.0
2018-Apr-18 16:36N 26°32' W 078°45'0 0.0
2018-Apr-18 16:27N 26°32' W 078°45'0 0.0
2018-Apr-18 16:00N 26°32' W 078°45'0 0.0
2018-Apr-18 15:30N 26°32' W 078°45'0 0.0
2018-Apr-18 14:57N 26°32' W 078°45'0 0.0
2018-Apr-18 14:30N 26°32' W 078°45'0 0.0
2018-Apr-18 14:00N 26°32' W 078°45'0 0.0
2018-Apr-18 13:29N 26°32' W 078°45'0 0.0
2018-Apr-18 13:00N 26°32' W 078°45'0 0.0
2018-Apr-18 12:30N 26°32' W 078°45'0 0.0
2018-Apr-18 12:00N 26°32' W 078°45'0 0.0
2018-Apr-18 11:27N 26°32' W 078°45'0 0.0
2018-Apr-18 11:00N 26°32' W 078°45'0 0.0
2018-Apr-18 10:30N 26°32' W 078°45'0 0.0
2018-Apr-18 10:00N 26°32' W 078°45'0 0.0
2018-Apr-18 09:30N 26°32' W 078°45'0 0.0
2018-Apr-18 09:00N 26°32' W 078°45'0 0.0
2018-Apr-18 08:29N 26°32' W 078°45'0 0.0
2018-Apr-18 08:00N 26°32' W 078°45'0 0.0
2018-Apr-18 07:30N 26°32' W 078°45'0 0.0
2018-Apr-18 07:00N 26°32' W 078°45'0 0.0
2018-Apr-18 06:30N 26°32' W 078°45'0 0.0
2018-Apr-18 06:00N 26°32' W 078°45'0 0.0
2018-Apr-18 05:28N 26°32' W 078°45'0 0.0
2018-Apr-18 05:00N 26°32' W 078°45'0 0.0
2018-Apr-18 04:30N 26°32' W 078°45'0 0.0
2018-Apr-18 03:57N 26°32' W 078°45'0 0.0
2018-Apr-18 03:29N 26°32' W 078°45'0 0.0
2018-Apr-18 02:52N 26°32' W 078°45'0 0.0
2018-Apr-18 01:37N 26°32' W 078°45'0 0.0
2018-Apr-16 02:15N 26°32' W 078°45'0 0.0
2018-Apr-16 02:00N 26°32' W 078°45'0 0.0
2018-Apr-16 01:30N 26°32' W 078°45'0 0.0
2018-Apr-16 01:00N 26°32' W 078°45'0 0.0
2018-Apr-16 00:30N 26°32' W 078°45'  
Track history (hours):
 
Tides and Currents Weather Stations Pressure Air Temp Water Temp Dewpoint Dewpoint Depression Visibility Wind Speed Wind Dir Waves Ship Positions

Frisia Inn

Last reported at 2018-Apr-21 14:10 UTC. Time now 2018-Apr-26 19:17 UTC.
Position N 25°24' W 079°56'.

Length 148 m; draft 7.6 m.

Type: Ship. MMSI: 636091437.

Date/timePositionNaut miles runAvg speedWind from/ knotsBaromVisibWave heightAir tempDewpointWater temp
2018-Apr-21 14:10N 25°24' W 079°56'213.6
2018-Apr-21 14:01N 25°26' W 079°56'713.6
2018-Apr-21 13:29N 25°33' W 079°55'613.2
2018-Apr-21 13:00N 25°39' W 079°57'715.1
2018-Apr-21 12:31N 25°45' W 080°02'611.4
2018-Apr-21 12:00N 25°46' W 080°08'2 3.3
2018-Apr-21 11:29N 25°46' W 080°10'0 0.0
2018-Apr-21 10:50N 25°46' W 080°10'0 0.0
2018-Apr-21 10:29N 25°46' W 080°10'0 0.0
2018-Apr-21 09:59N 25°46' W 080°10'0 0.0
2018-Apr-21 09:29N 25°46' W 080°10'0 0.0
2018-Apr-21 08:58N 25°46' W 080°10'0 0.0
2018-Apr-21 08:29N 25°46' W 080°10'0 0.0
2018-Apr-21 07:59N 25°46' W 080°10'0 0.0
2018-Apr-21 07:29N 25°46' W 080°10'0 0.0
2018-Apr-21 06:56N 25°46' W 080°10'0 0.0
2018-Apr-21 06:29N 25°46' W 080°10'0 0.0
2018-Apr-21 05:58N 25°46' W 080°10'0 0.0
2018-Apr-21 05:28N 25°46' W 080°10'0 0.0
2018-Apr-21 04:58N 25°46' W 080°10'0 0.0
2018-Apr-21 04:28N 25°46' W 080°10'0 0.0
2018-Apr-21 03:58N 25°46' W 080°10'0 0.0
2018-Apr-21 03:30N 25°46' W 080°10'0 0.0
2018-Apr-21 03:00N 25°46' W 080°10'0 0.0
2018-Apr-21 02:30N 25°46' W 080°10'1 1.8
2018-Apr-21 02:00N 25°46' W 080°09'510.7
2018-Apr-21 01:31N 25°46' W 080°03'4 8.0
2018-Apr-21 01:01N 25°48' W 079°59'4 8.7
2018-Apr-21 00:30N 25°51' W 079°56'510.9
2018-Apr-21 00:00N 25°54' W 079°51'611.0
2018-Apr-20 23:30N 25°58' W 079°46'612.9
2018-Apr-20 23:00N 26°01' W 079°40'713.8
2018-Apr-20 22:30N 26°04' W 079°33'713.8
2018-Apr-20 21:59N 26°08' W 079°27'44 1.7
2018-Apr-19 20:06N 26°32' W 078°45'0 0.0
2018-Apr-19 11:34N 26°32' W 078°45'0 0.0
2018-Apr-19 11:29N 26°32' W 078°45'0 0.0
2018-Apr-19 11:00N 26°32' W 078°45'0 0.0
2018-Apr-19 10:30N 26°32' W 078°45'0 0.0
2018-Apr-19 09:58N 26°32' W 078°45'0 0.0
2018-Apr-19 09:30N 26°32' W 078°45'0 0.0
2018-Apr-19 08:55N 26°32' W 078°45'0 0.0
2018-Apr-19 08:27N 26°32' W 078°45'0 0.0
2018-Apr-19 07:50N 26°32' W 078°45'0 0.0
2018-Apr-19 07:22N 26°32' W 078°45'0 0.0
2018-Apr-19 06:59N 26°32' W 078°45'0 0.0
2018-Apr-19 06:26N 26°32' W 078°45'0 0.0
2018-Apr-19 06:00N 26°32' W 078°45'0 0.0
2018-Apr-19 05:27N 26°32' W 078°45'0 0.0
2018-Apr-19 05:00N 26°32' W 078°45'0 0.0
2018-Apr-19 04:30N 26°32' W 078°45'0 0.0
2018-Apr-19 04:00N 26°32' W 078°45'0 0.0
2018-Apr-18 18:19N 26°32' W 078°45'0 0.0
2018-Apr-18 17:26N 26°32' W 078°45'0 0.0
2018-Apr-18 16:36N 26°32' W 078°45'0 0.0
2018-Apr-18 16:27N 26°32' W 078°45'0 0.0
2018-Apr-18 16:00N 26°32' W 078°45'0 0.0
2018-Apr-18 15:30N 26°32' W 078°45'0 0.0
2018-Apr-18 14:57N 26°32' W 078°45'0 0.0
2018-Apr-18 14:30N 26°32' W 078°45'0 0.0
2018-Apr-18 14:00N 26°32' W 078°45'0 0.0
2018-Apr-18 13:29N 26°32' W 078°45'0 0.0
2018-Apr-18 13:00N 26°32' W 078°45'0 0.0
2018-Apr-18 12:30N 26°32' W 078°45'0 0.0
2018-Apr-18 12:00N 26°32' W 078°45'0 0.0
2018-Apr-18 11:27N 26°32' W 078°45'0 0.0
2018-Apr-18 11:00N 26°32' W 078°45'0 0.0
2018-Apr-18 10:30N 26°32' W 078°45'0 0.0
2018-Apr-18 10:00N 26°32' W 078°45'0 0.0
2018-Apr-18 09:30N 26°32' W 078°45'0 0.0
2018-Apr-18 09:00N 26°32' W 078°45'0 0.0
2018-Apr-18 08:29N 26°32' W 078°45'0 0.0
2018-Apr-18 08:00N 26°32' W 078°45'0 0.0
2018-Apr-18 07:30N 26°32' W 078°45'0 0.0
2018-Apr-18 07:00N 26°32' W 078°45'0 0.0
2018-Apr-18 06:30N 26°32' W 078°45'0 0.0
2018-Apr-18 06:00N 26°32' W 078°45'0 0.0
2018-Apr-18 05:28N 26°32' W 078°45'0 0.0
2018-Apr-18 05:00N 26°32' W 078°45'0 0.0
2018-Apr-18 04:30N 26°32' W 078°45'0 0.0
2018-Apr-18 03:57N 26°32' W 078°45'0 0.0
2018-Apr-18 03:29N 26°32' W 078°45'0 0.0
2018-Apr-18 02:52N 26°32' W 078°45'0 0.0
2018-Apr-18 01:37N 26°32' W 078°45'0 0.0
2018-Apr-16 02:15N 26°32' W 078°45'0 0.0
2018-Apr-16 02:00N 26°32' W 078°45'0 0.0
2018-Apr-16 01:30N 26°32' W 078°45'0 0.0
2018-Apr-16 01:00N 26°32' W 078°45'0 0.0
2018-Apr-16 00:30N 26°32' W 078°45'  

Dump ship's entire track history